createdAt,value
2018-01-10T00:01:59.515Z,85.10
2018-01-10T00:04:26.249Z,85.00
2018-01-10T00:06:53.000Z,85.00
2018-01-10T00:09:19.732Z,85.10
2018-01-10T00:11:46.465Z,85.20
2018-01-10T00:14:13.192Z,85.30
2018-01-10T00:16:40.723Z,85.60
2018-01-10T00:19:07.442Z,85.50
2018-01-10T00:21:34.198Z,85.70
2018-01-10T00:24:00.933Z,85.70
2018-01-10T00:26:27.802Z,85.70
2018-01-10T00:28:55.324Z,85.90
2018-01-10T00:31:22.060Z,85.90
2018-01-10T00:33:48.804Z,86.00
2018-01-10T00:36:15.547Z,86.20
2018-01-10T00:38:42.284Z,86.40
2018-01-10T00:41:09.054Z,86.60
2018-01-10T00:43:35.809Z,86.80
2018-01-10T00:46:02.552Z,86.80
2018-01-10T00:48:29.322Z,86.90
2018-01-10T00:50:56.024Z,86.90
2018-01-10T00:53:22.766Z,87.00
2018-01-10T00:55:49.521Z,87.00
2018-01-10T00:58:16.307Z,86.90
2018-01-10T01:00:43.237Z,87.00
2018-01-10T01:03:10.002Z,86.80
2018-01-10T01:05:36.722Z,86.80
2018-01-10T01:08:03.449Z,87.50
2018-01-10T01:10:30.194Z,86.80
2018-01-10T01:12:56.929Z,86.60
2018-01-10T01:15:23.677Z,86.70
2018-01-10T01:17:51.909Z,86.60
2018-01-10T01:20:18.664Z,86.60
2018-01-10T01:22:45.406Z,86.70
2018-01-10T01:25:12.203Z,86.70
2018-01-10T01:27:39.765Z,87.50
2018-01-10T01:30:07.264Z,86.80
2018-01-10T01:32:33.994Z,86.80
2018-01-10T01:35:00.730Z,86.80
2018-01-10T01:37:27.467Z,86.80
2018-01-10T01:39:54.204Z,86.90
2018-01-10T01:42:20.955Z,86.90
2018-01-10T01:44:47.682Z,87.00
2018-01-10T01:47:14.423Z,86.80
2018-01-10T01:49:41.183Z,86.80
2018-01-10T01:52:08.081Z,86.70
2018-01-10T01:54:34.849Z,86.70
2018-01-10T01:57:01.585Z,86.70
2018-01-10T01:59:28.301Z,86.50
2018-01-10T02:01:55.038Z,86.50
2018-01-10T02:04:21.777Z,86.50
2018-01-10T02:06:48.716Z,86.60
2018-01-10T02:09:16.234Z,86.60
2018-01-10T02:11:42.981Z,86.60
2018-01-10T02:14:09.746Z,86.50
2018-01-10T02:16:37.240Z,86.70
2018-01-10T02:19:03.996Z,86.70
2018-01-10T02:21:30.737Z,86.80
2018-01-10T02:23:57.463Z,86.90
2018-01-10T02:26:24.432Z,87.00
2018-01-10T02:28:51.155Z,87.00
2018-01-10T02:31:17.939Z,87.10
2018-01-10T02:33:45.465Z,87.20
2018-01-10T02:36:12.196Z,87.20
2018-01-10T02:38:38.923Z,87.20
2018-01-10T02:41:05.683Z,87.10
2018-01-10T02:43:32.423Z,87.10
2018-01-10T02:45:59.183Z,87.10
2018-01-10T02:48:25.902Z,87.00
2018-01-10T02:50:53.554Z,87.10
2018-01-10T02:53:20.286Z,87.00
2018-01-10T02:55:47.039Z,87.00
2018-01-10T02:58:13.774Z,86.90
2018-01-10T03:00:40.508Z,87.00
2018-01-10T03:03:07.244Z,87.10
2018-01-10T03:05:33.976Z,87.10
2018-01-10T03:08:00.864Z,87.00
2018-01-10T03:10:28.390Z,86.90
2018-01-10T03:12:55.127Z,86.70
2018-01-10T03:15:21.856Z,86.80
2018-01-10T03:17:48.592Z,86.70
2018-01-10T03:20:15.322Z,86.80
2018-01-10T03:22:42.151Z,86.50
2018-01-10T03:25:09.630Z,86.50
2018-01-10T03:27:36.379Z,86.40
2018-01-10T03:30:03.120Z,86.40
2018-01-10T03:32:29.899Z,86.40
2018-01-10T03:34:57.411Z,86.30
2018-01-10T03:37:24.154Z,86.20
2018-01-10T03:39:50.913Z,86.30
2018-01-10T03:42:18.428Z,86.40
2018-01-10T03:44:45.174Z,86.20
2018-01-10T03:47:11.915Z,86.20
2018-01-10T03:49:38.667Z,86.20
2018-01-10T03:52:05.387Z,86.20
2018-01-10T03:54:32.130Z,86.30
2018-01-10T03:56:58.893Z,86.20
2018-01-10T03:59:25.619Z,86.30
2018-01-10T04:01:52.349Z,86.20
2018-01-10T04:04:19.097Z,86.20
2018-01-10T04:06:45.891Z,86.20
2018-01-10T04:09:12.611Z,86.30
2018-01-10T04:11:40.137Z,86.30
2018-01-10T04:14:06.888Z,86.30
2018-01-10T04:16:33.632Z,86.30
2018-01-10T04:19:00.339Z,86.20
2018-01-10T04:21:27.145Z,86.30
2018-01-10T04:23:53.874Z,86.20
2018-01-10T04:26:20.630Z,86.20
2018-01-10T04:28:47.375Z,86.10
2018-01-10T04:31:14.131Z,86.30
2018-01-10T04:33:40.867Z,86.10
2018-01-10T04:36:07.756Z,86.10
2018-01-10T04:38:35.251Z,87.00
2018-01-10T04:41:02.005Z,86.30
2018-01-10T04:43:28.731Z,86.40
2018-01-10T04:45:55.460Z,86.20
2018-01-10T04:48:22.195Z,86.20
2018-01-10T04:50:48.959Z,86.20
2018-01-10T04:53:15.721Z,86.10
2018-01-10T04:55:42.460Z,86.00
2018-01-10T04:58:09.258Z,85.90
2018-01-10T05:00:36.801Z,85.90
2018-01-10T05:03:04.321Z,85.90
2018-01-10T05:05:31.054Z,85.80
2018-01-10T05:07:57.784Z,85.80
2018-01-10T05:10:24.576Z,85.70
2018-01-10T05:12:51.308Z,85.70
2018-01-10T05:15:18.819Z,85.60
2018-01-10T05:17:45.595Z,85.60
2018-01-10T05:20:13.099Z,85.70
2018-01-10T05:22:39.876Z,85.60
2018-01-10T05:25:06.629Z,85.40
2018-01-10T05:27:34.145Z,85.40
2018-01-10T05:30:00.893Z,85.30
2018-01-10T05:32:27.610Z,85.20
2018-01-10T05:34:54.366Z,85.10
2018-01-10T05:37:21.107Z,85.10
2018-01-10T05:39:47.850Z,85.00
2018-01-10T05:42:14.627Z,84.90
2018-01-10T05:44:42.152Z,84.90
2018-01-10T05:47:08.912Z,84.90
2018-01-10T05:49:35.639Z,84.70
2018-01-10T05:52:02.466Z,84.80
2018-01-10T05:54:29.218Z,84.80
2018-01-10T05:56:55.960Z,84.80
2018-01-10T05:59:22.719Z,84.70
2018-01-10T06:01:50.249Z,84.70
2018-01-10T06:04:17.959Z,84.60
2018-01-10T06:06:44.715Z,84.70
2018-01-10T06:09:11.459Z,84.70
2018-01-10T06:11:38.359Z,84.60
2018-01-10T06:14:05.907Z,84.60
2018-01-10T06:16:32.646Z,84.60
2018-01-10T06:19:00.156Z,84.50
2018-01-10T06:21:26.894Z,84.40
2018-01-10T06:23:53.612Z,84.50
2018-01-10T06:26:20.368Z,84.30
2018-01-10T06:28:47.110Z,84.40
2018-01-10T06:31:13.842Z,84.30
2018-01-10T06:33:40.578Z,84.30
2018-01-10T06:36:07.492Z,84.30
2018-01-10T06:38:35.011Z,84.50
2018-01-10T06:41:01.746Z,84.50
2018-01-10T06:43:28.491Z,84.40
2018-01-10T06:45:55.239Z,84.50
2018-01-10T06:48:21.995Z,84.30
2018-01-10T06:50:48.738Z,84.50
2018-01-10T06:53:15.467Z,84.60
2018-01-10T06:55:42.963Z,84.70
2018-01-10T06:58:09.908Z,84.60
2018-01-10T07:00:37.428Z,85.60
2018-01-10T07:03:04.982Z,85.00
2018-01-10T07:05:31.715Z,84.80
2018-01-10T07:07:58.456Z,85.00
2018-01-10T07:10:25.206Z,85.10
2018-01-10T07:12:52.706Z,85.30
2018-01-10T07:15:19.439Z,85.90
2018-01-10T07:17:46.179Z,85.40
2018-01-10T07:20:12.947Z,85.60
2018-01-10T07:22:39.674Z,86.30
2018-01-10T07:25:06.572Z,86.40
2018-01-10T07:27:33.294Z,85.90
2018-01-10T07:30:00.833Z,86.20
2018-01-10T07:32:27.542Z,86.00
2018-01-10T07:34:54.296Z,86.20
2018-01-10T07:37:21.041Z,86.50
2018-01-10T07:39:47.781Z,86.70
2018-01-10T07:42:14.570Z,86.80
2018-01-10T07:44:41.311Z,87.00
2018-01-10T07:47:08.067Z,87.00
2018-01-10T07:49:34.806Z,87.00
2018-01-10T07:52:01.571Z,87.10
2018-01-10T07:54:28.302Z,87.10
2018-01-10T07:56:55.067Z,87.00
2018-01-10T07:59:21.816Z,87.10
2018-01-10T08:01:48.574Z,87.10
2018-01-10T08:04:16.074Z,87.20
2018-01-10T08:06:42.845Z,87.20
2018-01-10T08:09:09.597Z,87.20
2018-01-10T08:11:37.103Z,87.30
2018-01-10T08:14:03.844Z,87.30
2018-01-10T08:16:30.573Z,87.30
2018-01-10T08:18:57.340Z,87.30
2018-01-10T08:21:24.071Z,87.30
2018-01-10T08:23:50.960Z,87.30
2018-01-10T08:26:18.886Z,87.10
2018-01-10T08:28:45.737Z,87.00
2018-01-10T08:31:12.479Z,87.00
2018-01-10T08:33:39.240Z,86.90
2018-01-10T08:36:06.003Z,86.50
2018-01-10T08:38:32.725Z,87.20
2018-01-10T08:41:00.231Z,86.10
2018-01-10T08:43:26.961Z,85.90
2018-01-10T08:45:53.700Z,85.80
2018-01-10T08:48:20.430Z,85.40
2018-01-10T08:50:47.178Z,85.10
2018-01-10T08:53:13.915Z,85.70
2018-01-10T08:55:40.650Z,84.20
2018-01-10T08:58:07.369Z,84.20
2018-01-10T09:00:34.119Z,83.90
2018-01-10T09:03:00.847Z,83.90
2018-01-10T09:05:27.602Z,83.30
2018-01-10T09:07:54.324Z,83.60
2018-01-10T09:10:21.086Z,83.20
2018-01-10T09:12:47.806Z,83.50
2018-01-10T09:15:18.647Z,83.00
2018-01-10T09:17:47.116Z,83.10
2018-01-10T09:20:13.874Z,83.10
2018-01-10T09:22:40.692Z,83.30
2018-01-10T09:25:07.404Z,83.20
2018-01-10T09:27:34.143Z,83.10
2018-01-10T09:30:00.891Z,83.40
2018-01-10T09:32:28.194Z,82.80
2018-01-10T09:34:54.901Z,82.80
2018-01-10T09:37:22.398Z,82.20
2018-01-10T09:39:49.156Z,82.10
2018-01-10T09:42:15.892Z,80.80
2018-01-10T09:44:42.652Z,80.00
2018-01-10T09:47:09.379Z,79.60
2018-01-10T09:49:36.890Z,79.80
2018-01-10T09:52:03.613Z,79.60
2018-01-10T09:54:30.360Z,79.90
2018-01-10T09:56:57.096Z,79.70
2018-01-10T09:59:23.821Z,80.90
2018-01-10T10:01:51.336Z,79.60
2018-01-10T10:04:19.280Z,79.60
2018-01-10T10:06:47.060Z,79.00
2018-01-10T10:09:13.803Z,79.00
2018-01-10T10:11:40.546Z,78.90
2018-01-10T10:14:07.266Z,79.00
2018-01-10T10:16:33.989Z,78.60
2018-01-10T10:19:00.807Z,78.50
2018-01-10T10:21:27.505Z,78.10
2018-01-10T10:23:54.249Z,77.60
2018-01-10T10:26:20.966Z,77.10
2018-01-10T10:28:47.724Z,76.70
2018-01-10T10:31:14.470Z,76.80
2018-01-10T10:33:41.202Z,75.80
2018-01-10T10:36:09.603Z,75.00
2018-01-10T10:38:37.115Z,75.10
2018-01-10T10:41:03.856Z,74.50
2018-01-10T10:43:30.601Z,75.10
2018-01-10T10:45:57.330Z,73.70
2018-01-10T10:48:24.179Z,73.70
2018-01-10T10:50:50.894Z,73.50
2018-01-10T10:53:17.810Z,72.30
2018-01-10T10:55:45.355Z,72.80
2018-01-10T10:58:12.914Z,72.60
2018-01-10T11:00:40.526Z,72.70
2018-01-10T11:03:07.267Z,72.70
2018-01-10T11:05:33.998Z,73.20
2018-01-10T11:08:00.743Z,73.40
2018-01-10T11:10:27.478Z,73.10
2018-01-10T11:12:54.240Z,73.20
2018-01-10T11:15:20.973Z,72.90
2018-01-10T11:17:47.716Z,73.10
2018-01-10T11:20:14.448Z,73.00
2018-01-10T11:22:41.207Z,72.90
2018-01-10T11:25:07.924Z,72.50
2018-01-10T11:27:34.653Z,73.00
2018-01-10T11:30:01.421Z,72.70
2018-01-10T11:32:28.153Z,72.70
2018-01-10T11:34:54.930Z,72.70
2018-01-10T11:37:22.418Z,72.10
2018-01-10T11:39:49.328Z,72.10
2018-01-10T11:42:16.837Z,71.70
2018-01-10T11:44:43.550Z,71.70
2018-01-10T11:47:10.369Z,71.50
2018-01-10T11:49:37.100Z,71.80
2018-01-10T11:52:04.666Z,70.10
2018-01-10T11:54:31.461Z,70.10
2018-01-10T11:56:58.183Z,70.40
2018-01-10T11:59:25.212Z,70.60
2018-01-10T12:01:51.938Z,70.70
2018-01-10T12:04:18.680Z,71.20
2018-01-10T12:06:45.480Z,71.30
2018-01-10T12:09:12.215Z,71.60
2018-01-10T12:11:38.955Z,71.40
2018-01-10T12:14:05.691Z,71.70
2018-01-10T12:16:32.428Z,72.50
2018-01-10T12:18:59.957Z,72.70
2018-01-10T12:21:26.681Z,72.80
2018-01-10T12:23:53.417Z,73.20
2018-01-10T12:26:20.157Z,73.10
2018-01-10T12:28:46.908Z,72.50
2018-01-10T12:31:13.644Z,72.60
2018-01-10T12:33:40.376Z,72.70
2018-01-10T12:36:07.100Z,70.90
2018-01-10T12:38:33.846Z,70.80
2018-01-10T12:41:00.565Z,70.80
2018-01-10T12:43:28.083Z,70.60
2018-01-10T12:45:54.810Z,70.40
2018-01-10T12:48:21.572Z,70.80
2018-01-10T12:50:48.308Z,70.70
2018-01-10T12:53:15.030Z,70.90
2018-01-10T12:55:41.779Z,70.70
2018-01-10T12:58:08.528Z,70.30
2018-01-10T13:00:35.296Z,70.00
2018-01-10T13:03:02.835Z,69.80
2018-01-10T13:05:29.583Z,69.70
2018-01-10T13:07:57.093Z,70.70
2018-01-10T13:10:23.824Z,70.60
2018-01-10T13:12:50.560Z,70.30
2018-01-10T13:15:17.342Z,69.60
2018-01-10T13:17:45.611Z,70.00
2018-01-10T13:20:12.353Z,69.90
2018-01-10T13:22:39.095Z,70.40
2018-01-10T13:25:05.852Z,70.70
2018-01-10T13:27:33.356Z,70.50
2018-01-10T13:30:00.100Z,70.40
2018-01-10T13:32:27.035Z,70.60
2018-01-10T13:34:53.774Z,70.90
2018-01-10T13:37:20.526Z,69.90
2018-01-10T13:39:47.268Z,69.90
2018-01-10T13:42:13.982Z,70.00
2018-01-10T13:44:40.738Z,70.10
2018-01-10T13:47:07.479Z,70.60
2018-01-10T13:49:34.375Z,70.60
2018-01-10T13:52:01.085Z,70.60
2018-01-10T13:54:27.820Z,70.40
2018-01-10T13:56:54.562Z,71.20
2018-01-10T13:59:21.291Z,70.10
2018-01-10T14:01:48.050Z,69.70
2018-01-10T14:04:15.539Z,70.10
2018-01-10T14:06:42.294Z,70.10
2018-01-10T14:09:09.040Z,69.60
2018-01-10T14:11:35.944Z,68.50
2018-01-10T14:14:03.487Z,69.20
2018-01-10T14:16:30.202Z,70.30
2018-01-10T14:18:56.936Z,69.10
2018-01-10T14:21:23.720Z,69.00
2018-01-10T14:23:51.245Z,68.50
2018-01-10T14:26:18.071Z,68.40
2018-01-10T14:28:44.812Z,68.40
2018-01-10T14:31:11.561Z,67.80
2018-01-10T14:33:38.315Z,68.00
2018-01-10T14:36:05.854Z,68.60
2018-01-10T14:38:32.640Z,68.50
2018-01-10T14:40:59.392Z,68.80
2018-01-10T14:43:26.114Z,70.20
2018-01-10T14:45:52.856Z,70.20
2018-01-10T14:48:20.373Z,70.60
2018-01-10T14:50:47.123Z,70.50
2018-01-10T14:53:13.880Z,70.70
2018-01-10T14:55:41.408Z,71.40
2018-01-10T14:58:08.154Z,71.20
2018-01-10T15:00:34.957Z,71.60
2018-01-10T15:03:01.695Z,71.80
2018-01-10T15:05:28.442Z,72.10
2018-01-10T15:07:55.173Z,72.30
2018-01-10T15:10:21.900Z,72.70
2018-01-10T15:12:48.630Z,72.90
2018-01-10T15:15:15.362Z,72.80
2018-01-10T15:17:42.130Z,72.90
2018-01-10T15:20:08.958Z,73.50
2018-01-10T15:22:35.760Z,72.80
2018-01-10T15:25:03.271Z,73.00
2018-01-10T15:27:30.042Z,73.00
2018-01-10T15:29:56.817Z,73.20
2018-01-10T15:32:24.303Z,73.30
2018-01-10T15:34:51.172Z,73.20
2018-01-10T15:37:17.923Z,73.50
2018-01-10T15:39:44.693Z,73.80
2018-01-10T15:42:12.174Z,74.70
2018-01-10T15:44:38.921Z,73.90
2018-01-10T15:47:05.670Z,74.10
2018-01-10T15:49:32.416Z,74.50
2018-01-10T15:51:59.173Z,74.70
2018-01-10T15:54:25.894Z,74.80
2018-01-10T15:56:52.626Z,74.70
2018-01-10T15:59:19.387Z,74.90
2018-01-10T16:01:46.144Z,75.00
2018-01-10T16:04:13.659Z,74.00
2018-01-10T16:06:40.406Z,74.00
2018-01-10T16:09:07.159Z,73.80
2018-01-10T16:11:33.910Z,73.50
2018-01-10T16:14:02.164Z,73.20
2018-01-10T16:16:28.911Z,73.10
2018-01-10T16:18:57.374Z,73.00
2018-01-10T16:21:24.151Z,73.00
2018-01-10T16:23:51.669Z,73.10
2018-01-10T16:26:18.437Z,73.00
2018-01-10T16:28:45.227Z,73.00
2018-01-10T16:31:11.993Z,73.10
2018-01-10T16:33:38.814Z,73.10
2018-01-10T16:36:05.613Z,73.00
2018-01-10T16:38:32.384Z,72.90
2018-01-10T16:40:59.120Z,72.90
2018-01-10T16:43:25.885Z,73.00
2018-01-10T16:45:52.618Z,73.00
2018-01-10T16:48:19.393Z,73.40
2018-01-10T16:50:46.889Z,73.50
2018-01-10T16:53:13.608Z,73.50
2018-01-10T16:55:40.361Z,74.10
2018-01-10T16:58:07.074Z,74.50
2018-01-10T17:00:33.792Z,74.50
2018-01-10T17:03:00.505Z,73.90
2018-01-10T17:05:27.299Z,74.00
2018-01-10T17:07:54.015Z,73.90
2018-01-10T17:10:20.799Z,73.90
2018-01-10T17:12:47.556Z,73.80
2018-01-10T17:15:14.283Z,73.90
2018-01-10T17:17:41.027Z,74.00
2018-01-10T17:20:07.767Z,74.40
2018-01-10T17:22:34.500Z,74.50
2018-01-10T17:25:01.252Z,74.50
2018-01-10T17:27:27.984Z,74.60
2018-01-10T17:29:54.738Z,74.80
2018-01-10T17:32:21.466Z,74.80
2018-01-10T17:34:48.197Z,74.90
2018-01-10T17:37:14.949Z,74.60
2018-01-10T17:39:41.660Z,74.80
2018-01-10T17:42:08.491Z,74.50
2018-01-10T17:44:35.274Z,74.30
2018-01-10T17:47:02.010Z,74.40
2018-01-10T17:49:28.790Z,74.30
2018-01-10T17:51:55.532Z,74.30
2018-01-10T17:54:22.277Z,74.20
2018-01-10T17:56:49.749Z,74.30
2018-01-10T17:59:16.500Z,74.30
2018-01-10T18:01:43.251Z,74.30
2018-01-10T18:04:10.009Z,74.30
2018-01-10T18:06:36.805Z,74.20
2018-01-10T18:09:03.504Z,74.30
2018-01-10T18:11:30.275Z,74.30
2018-01-10T18:13:57.778Z,74.00
2018-01-10T18:16:24.605Z,74.00
2018-01-10T18:18:51.339Z,73.80
2018-01-10T18:21:18.088Z,73.70
2018-01-10T18:23:44.810Z,73.50
2018-01-10T18:26:11.590Z,73.30
2018-01-10T18:28:38.312Z,73.20
2018-01-10T18:31:05.061Z,73.30
2018-01-10T18:33:31.796Z,73.40
2018-01-10T18:35:58.572Z,73.20
2018-01-10T18:38:25.250Z,73.20
2018-01-10T18:40:52.014Z,73.10
2018-01-10T18:43:18.749Z,72.90
2018-01-10T18:45:45.524Z,72.90
2018-01-10T18:48:12.248Z,72.90
2018-01-10T18:50:39.749Z,72.80
2018-01-10T18:53:06.558Z,72.90
2018-01-10T18:55:33.282Z,72.90
2018-01-10T18:58:00.083Z,72.80
2018-01-10T19:00:27.554Z,72.80
2018-01-10T19:02:54.335Z,72.70
2018-01-10T19:05:21.053Z,73.10
2018-01-10T19:07:47.803Z,72.90
2018-01-10T19:10:16.033Z,73.40
2018-01-10T19:12:42.779Z,73.40
2018-01-10T19:15:09.568Z,73.70
2018-01-10T19:17:37.805Z,73.70
2018-01-10T19:20:04.567Z,73.70
2018-01-10T19:22:31.319Z,73.70
2018-01-10T19:24:58.838Z,73.20
2018-01-10T19:27:25.617Z,73.70
2018-01-10T19:29:52.386Z,74.00
2018-01-10T19:32:19.191Z,74.10
2018-01-10T19:34:45.946Z,74.20
2018-01-10T19:37:12.692Z,74.30
2018-01-10T19:39:40.236Z,74.50
2018-01-10T19:42:07.828Z,74.50
2018-01-10T19:44:34.570Z,74.80
2018-01-10T19:47:01.308Z,74.20
2018-01-10T19:49:28.007Z,74.30
2018-01-10T19:51:55.589Z,75.30
2018-01-10T19:54:23.056Z,75.30
2018-01-10T19:56:49.799Z,75.30
2018-01-10T19:59:16.524Z,75.40
2018-01-10T20:01:43.280Z,75.30
2018-01-10T20:04:10.005Z,75.50
2018-01-10T20:06:36.778Z,75.60
2018-01-10T20:09:03.507Z,75.70
2018-01-10T20:11:30.255Z,75.70
2018-01-10T20:13:56.995Z,75.70
2018-01-10T20:16:23.735Z,75.20
2018-01-10T20:18:50.485Z,74.80
2018-01-10T20:21:17.306Z,74.80
2018-01-10T20:23:44.052Z,74.80
2018-01-10T20:26:10.808Z,74.80
2018-01-10T20:28:37.563Z,74.50
2018-01-10T20:31:05.058Z,75.40
2018-01-10T20:33:31.806Z,74.60
2018-01-10T20:35:58.621Z,75.00
2018-01-10T20:38:25.354Z,75.10
2018-01-10T20:40:52.847Z,75.70
2018-01-10T20:43:19.586Z,75.50
2018-01-10T20:45:46.317Z,75.70
2018-01-10T20:48:13.044Z,75.70
2018-01-10T20:50:39.796Z,76.00
2018-01-10T20:53:06.523Z,76.00
2018-01-10T20:55:33.292Z,75.90
2018-01-10T20:58:00.065Z,76.20
2018-01-10T21:00:26.799Z,76.10
2018-01-10T21:02:53.596Z,76.80
2018-01-10T21:05:20.314Z,76.20
2018-01-10T21:07:47.065Z,76.40
2018-01-10T21:10:13.822Z,76.20
2018-01-10T21:12:40.563Z,76.20
2018-01-10T21:15:07.354Z,76.40
2018-01-10T21:17:34.315Z,76.50
2018-01-10T21:20:01.080Z,76.70
2018-01-10T21:22:27.841Z,76.70
2018-01-10T21:24:54.573Z,76.70
2018-01-10T21:27:21.316Z,76.80
2018-01-10T21:29:48.091Z,77.20
2018-01-10T21:34:48.671Z,77.20
2018-01-10T21:37:15.410Z,77.50
2018-01-10T21:39:42.131Z,77.60
2018-01-10T21:42:08.879Z,77.70
2018-01-10T21:44:35.635Z,78.30
2018-01-10T21:47:02.423Z,78.70
2018-01-10T21:51:57.872Z,79.00
2018-01-10T21:54:25.505Z,79.40
2018-01-10T21:56:52.242Z,79.30
2018-01-10T21:59:19.001Z,79.60
2018-01-10T22:01:46.533Z,80.10
2018-01-10T22:04:14.777Z,80.20
2018-01-10T22:06:41.514Z,80.30
2018-01-10T22:09:08.269Z,80.30
2018-01-10T22:11:35.030Z,80.40
2018-01-10T22:14:01.921Z,80.70
2018-01-10T22:16:28.660Z,80.60
2018-01-10T22:18:55.418Z,80.70
2018-01-10T22:21:22.171Z,80.80
2018-01-10T22:23:48.919Z,80.90
2018-01-10T22:26:15.681Z,81.00
2018-01-10T22:28:43.190Z,81.60
2018-01-10T22:31:09.995Z,81.50
2018-01-10T22:33:36.735Z,82.00
2018-01-10T22:36:03.491Z,82.10
2018-01-10T22:38:30.237Z,82.20
2018-01-10T22:40:56.962Z,82.60
2018-01-10T22:43:23.700Z,82.80
2018-01-10T22:45:50.447Z,82.80
2018-01-10T22:48:17.182Z,82.90
2018-01-10T22:50:43.947Z,83.10
2018-01-10T22:53:10.700Z,83.30
2018-01-10T22:55:37.446Z,83.30
2018-01-10T22:58:04.187Z,83.50
2018-01-10T23:00:32.439Z,83.90
2018-01-10T23:02:59.172Z,83.90
2018-01-10T23:05:25.978Z,83.90
2018-01-10T23:07:52.675Z,84.20
2018-01-10T23:10:19.498Z,84.50
2018-01-10T23:12:46.251Z,84.70
2018-01-10T23:15:12.979Z,84.90
2018-01-10T23:17:39.730Z,85.30
2018-01-10T23:20:06.502Z,85.30
2018-01-10T23:22:33.213Z,85.40
2018-01-10T23:24:59.958Z,85.70
2018-01-10T23:27:26.716Z,86.00
2018-01-10T23:29:54.217Z,86.20
2018-01-10T23:32:20.983Z,86.00
2018-01-10T23:34:47.715Z,86.60
2018-01-10T23:37:14.468Z,86.50
2018-01-10T23:39:41.243Z,86.80
2018-01-10T23:42:08.784Z,87.10
2018-01-10T23:44:36.339Z,87.20
2018-01-10T23:47:03.896Z,87.40
2018-01-10T23:49:30.670Z,87.30
2018-01-10T23:51:57.362Z,87.50
2018-01-10T23:54:24.108Z,87.80
2018-01-10T23:56:51.606Z,88.00
2018-01-10T23:59:18.380Z,87.90
